Time;durP1;ratioP1;P1;durP2;ratioP2;P2;SDS_P1;SDS_P2;PMS_P1;PMS_P2;Temp;Humidity;BMP_temperature;BMP_pressure;BME280_temperature;BME280_humidity;BME280_pressure;Samples;Min_cycle;Max_cycle;Signal;HPM_P1;HPM_P2
2021/10/06 00:02:20;;;;;;;2.90;0.90;;;;;;;8.64;100.00;95695.13;5031415;28;24424;-77
2021/10/06 00:04:48;;;;;;;4.18;0.98;;;;;;;8.70;100.00;95693.03;5030146;28;22279;-77
2021/10/06 00:07:14;;;;;;;2.63;1.00;;;;;;;8.75;100.00;95694.53;5031478;28;24829;-77
2021/10/06 00:09:41;;;;;;;3.45;1.02;;;;;;;8.74;100.00;95696.28;5033522;28;24976;-77
2021/10/06 00:12:07;;;;;;;3.08;0.98;;;;;;;8.83;100.00;95702.69;5050769;28;24485;-77
2021/10/06 00:14:34;;;;;;;2.10;1.00;;;;;;;8.85;100.00;95699.09;5050762;28;24477;-78
2021/10/06 00:17:00;;;;;;;2.55;0.85;;;;;;;8.84;100.00;95701.75;5050667;28;24431;-77
2021/10/06 00:19:28;;;;;;;2.42;0.88;;;;;;;8.82;100.00;95701.84;5050796;28;24427;-78
2021/10/06 00:21:56;;;;;;;1.58;0.60;;;;;;;8.84;100.00;95706.94;5050841;28;24449;-77
2021/10/06 00:24:22;;;;;;;1.45;0.90;;;;;;;8.85;100.00;95706.84;5050535;28;25035;-78
2021/10/06 00:26:49;;;;;;;2.20;0.80;;;;;;;8.94;100.00;95705.50;5050690;28;24418;-78
2021/10/06 00:29:15;;;;;;;4.55;0.90;;;;;;;8.91;100.00;95711.66;5050862;28;24836;-78
2021/10/06 00:31:42;;;;;;;6.03;0.90;;;;;;;9.03;100.00;95710.13;5050892;28;24423;-78
2021/10/06 00:34:08;;;;;;;4.47;1.30;;;;;;;9.01;100.00;95711.97;5050540;28;25044;-77
2021/10/06 00:36:36;;;;;;;1.93;0.83;;;;;;;9.06;100.00;95715.13;5050207;28;20787;-77
2021/10/06 00:39:03;;;;;;;2.53;0.90;;;;;;;8.93;100.00;95717.56;5050644;28;20781;-77
2021/10/06 00:41:30;;;;;;;1.80;0.60;;;;;;;8.91;100.00;95709.06;5050520;28;24423;-77
2021/10/06 00:43:56;;;;;;;1.83;0.80;;;;;;;8.94;100.00;95706.31;5050563;28;20767;-76
2021/10/06 00:46:22;;;;;;;2.92;1.05;;;;;;;8.80;100.00;95724.34;5050189;28;24877;-77
2021/10/06 00:48:49;;;;;;;2.70;0.80;;;;;;;8.90;100.00;95714.34;5050595;28;20772;-78
2021/10/06 00:51:17;;;;;;;3.00;0.95;;;;;;;8.77;100.00;95723.69;5050317;28;24423;-78
2021/10/06 00:53:44;;;;;;;3.53;1.10;;;;;;;8.78;100.00;95733.09;5050274;28;20773;-78
2021/10/06 00:56:12;;;;;;;1.52;0.60;;;;;;;8.83;100.00;95713.84;5050176;28;20889;-77
2021/10/06 00:58:38;;;;;;;2.40;0.80;;;;;;;8.75;100.00;95725.50;5050371;28;24427;-77
2021/10/06 01:01:05;;;;;;;2.38;0.80;;;;;;;8.72;100.00;95722.19;5050300;28;24426;-77
2021/10/06 01:03:31;;;;;;;1.65;0.77;;;;;;;8.72;100.00;95713.63;5050232;28;24415;-77
2021/10/06 01:05:57;;;;;;;3.85;1.25;;;;;;;8.75;100.00;95708.28;5049775;28;24964;-77
2021/10/06 01:08:24;;;;;;;3.20;1.00;;;;;;;8.69;100.00;95718.97;5049896;28;24435;-77
2021/10/06 01:10:54;;;;;;;2.40;0.90;;;;;;;8.82;100.00;95699.25;5050341;28;24411;-77
2021/10/06 01:13:21;;;;;;;7.15;0.98;;;;;;;8.69;100.00;95716.38;5050578;28;20751;-77
2021/10/06 01:15:48;;;;;;;2.53;0.80;;;;;;;8.66;100.00;95713.97;5053551;28;21313;-78
2021/10/06 01:18:14;;;;;;;2.80;0.88;;;;;;;8.65;100.00;95707.97;5055842;28;24480;-77
2021/10/06 01:20:41;;;;;;;3.28;0.93;;;;;;;8.73;100.00;95710.13;5051023;28;24423;-77
2021/10/06 01:23:09;;;;;;;3.25;1.00;;;;;;;8.75;100.00;95712.59;5050255;28;24430;-77
2021/10/06 01:25:35;;;;;;;4.07;0.98;;;;;;;8.62;100.00;95715.88;5049954;28;24419;-77
2021/10/06 01:28:02;;;;;;;2.70;1.02;;;;;;;8.57;100.00;95715.31;5049984;28;24427;-77
2021/10/06 01:30:28;;;;;;;1.75;0.75;;;;;;;8.53;100.00;95715.56;5050203;28;21172;-77
2021/10/06 01:32:55;;;;;;;2.38;1.00;;;;;;;8.56;100.00;95716.22;5050053;28;24427;-77
2021/10/06 01:35:21;;;;;;;3.10;0.73;;;;;;;8.56;100.00;95718.78;5049416;28;24806;-77
2021/10/06 01:37:47;;;;;;;5.25;1.00;;;;;;;8.53;100.00;95712.97;5049982;28;24431;-77
2021/10/06 01:40:19;;;;;;;3.50;1.00;;;;;;;8.66;100.00;95719.94;5052181;28;20840;-77
2021/10/06 01:42:46;;;;;;;5.00;1.10;;;;;;;8.52;100.00;95712.13;5053911;28;20734;-77
2021/10/06 01:45:19;;;;;;;2.40;0.73;;;;;;;8.50;100.00;95718.31;5053505;28;20763;-77
2021/10/06 01:47:45;;;;;;;2.55;0.80;;;;;;;8.40;100.00;95723.16;5053542;28;20739;-78
2021/10/06 01:50:17;;;;;;;2.10;0.90;;;;;;;8.39;100.00;95726.66;5053718;28;24468;-77
2021/10/06 01:52:43;;;;;;;2.22;0.98;;;;;;;8.49;100.00;95722.63;5053837;28;21072;-77
2021/10/06 01:55:10;;;;;;;2.22;1.02;;;;;;;8.48;100.00;95726.13;5053223;28;24430;-76
2021/10/06 01:57:38;;;;;;;2.17;0.80;;;;;;;8.49;100.00;95738.13;5054053;28;24755;-77
2021/10/06 02:00:06;;;;;;;3.38;0.77;;;;;;;8.59;100.00;95731.53;5053476;28;20805;-78
2021/10/06 02:02:32;;;;;;;1.77;0.90;;;;;;;8.70;100.00;95738.69;5053227;28;20790;-78
2021/10/06 02:04:58;;;;;;;2.90;1.00;;;;;;;8.67;100.00;95744.84;5053261;28;20763;-77
2021/10/06 02:07:25;;;;;;;3.97;0.77;;;;;;;8.58;100.00;95750.53;5053207;28;21172;-78
2021/10/06 02:09:51;;;;;;;2.00;0.85;;;;;;;8.48;100.00;95746.78;5053205;28;21284;-78
2021/10/06 02:12:18;;;;;;;1.33;0.70;;;;;;;8.59;100.00;95752.19;5053042;28;24472;-78
2021/10/06 02:14:46;;;;;;;2.95;0.90;;;;;;;8.44;100.00;95758.19;5052659;28;24836;-77
2021/10/06 02:17:12;;;;;;;2.58;0.88;;;;;;;8.41;100.00;95764.34;5052859;28;21351;-78
2021/10/06 02:19:38;;;;;;;3.58;1.08;;;;;;;8.35;100.00;95769.81;5053238;28;24517;-77
2021/10/06 02:22:05;;;;;;;3.10;0.90;;;;;;;8.31;100.00;95760.59;5053430;28;24469;-77
2021/10/06 02:24:31;;;;;;;2.97;0.90;;;;;;;8.19;100.00;95766.38;5052673;28;24501;-78
2021/10/06 02:26:58;;;;;;;2.38;0.82;;;;;;;8.18;100.00;95767.31;5052668;28;24971;-77
2021/10/06 02:29:24;;;;;;;2.33;0.77;;;;;;;8.10;100.00;95766.88;5052729;28;24423;-77
2021/10/06 02:31:52;;;;;;;4.20;1.10;;;;;;;7.99;100.00;95764.88;5052731;28;24423;-77
2021/10/06 02:34:18;;;;;;;3.42;0.98;;;;;;;7.95;100.00;95766.78;5053148;28;20817;-77
2021/10/06 02:36:45;;;;;;;2.88;1.00;;;;;;;8.03;100.00;95774.13;5052231;28;24497;-77
2021/10/06 02:39:11;;;;;;;2.17;0.68;;;;;;;8.11;100.00;95771.13;5052660;28;24427;-77
2021/10/06 02:41:38;;;;;;;1.63;0.82;;;;;;;8.06;100.00;95767.97;5053070;28;24434;-77
2021/10/06 02:44:05;;;;;;;1.67;0.68;;;;;;;8.05;100.00;95771.47;5052667;28;24427;-77
2021/10/06 02:46:32;;;;;;;2.17;0.95;;;;;;;8.01;100.00;95770.78;5052447;28;24435;-78
2021/10/06 02:48:59;;;;;;;3.05;0.90;;;;;;;8.17;100.00;95773.41;5052349;28;24434;-77
2021/10/06 02:51:26;;;;;;;3.35;0.77;;;;;;;8.21;100.00;95765.41;5051130;28;24449;-77
2021/10/06 02:53:53;;;;;;;2.17;0.70;;;;;;;8.27;100.00;95779.72;5052330;28;24422;-78
2021/10/06 02:56:19;;;;;;;1.52;0.80;;;;;;;8.30;100.00;95783.88;5052209;28;24446;-77
2021/10/06 02:58:46;;;;;;;1.65;0.70;;;;;;;8.32;100.00;95782.88;5052442;28;24439;-78
2021/10/06 03:01:12;;;;;;;2.70;0.80;;;;;;;8.44;100.00;95784.84;5052471;28;24434;-78
2021/10/06 03:03:39;;;;;;;10.05;1.10;;;;;;;8.48;100.00;95795.81;5052211;28;24427;-78
2021/10/06 03:06:06;;;;;;;2.85;1.65;;;;;;;8.59;100.00;95796.06;5051938;28;24411;-78
2021/10/06 03:08:33;;;;;;;2.65;1.70;;;;;;;8.49;100.00;95797.47;5052212;28;20759;-78
2021/10/06 03:10:59;;;;;;;1.98;1.00;;;;;;;8.47;100.00;95801.91;5051880;28;24514;-77
2021/10/06 03:13:26;;;;;;;3.20;1.42;;;;;;;8.53;100.00;95801.59;5051820;28;24427;-77
2021/10/06 03:15:54;;;;;;;2.55;1.05;;;;;;;8.49;100.00;95800.06;5051735;28;24584;-77
2021/10/06 03:18:20;;;;;;;2.33;1.10;;;;;;;8.40;100.00;95796.25;5051975;28;20850;-77
2021/10/06 03:20:46;;;;;;;2.38;0.80;;;;;;;8.23;100.00;95797.13;5051890;28;24430;-77
2021/10/06 03:23:14;;;;;;;3.00;1.08;;;;;;;8.22;100.00;95807.50;5051741;28;24415;-77
2021/10/06 03:25:41;;;;;;;3.05;1.30;;;;;;;8.22;100.00;95808.34;5051284;28;24418;-77
2021/10/06 03:28:08;;;;;;;3.30;1.30;;;;;;;7.90;100.00;95807.47;5051872;28;20887;-77
2021/10/06 03:30:34;;;;;;;2.75;0.93;;;;;;;8.06;100.00;95804.06;5051965;28;21244;-77
2021/10/06 03:33:01;;;;;;;3.25;0.80;;;;;;;8.09;100.00;95809.09;5051695;28;24422;-77
2021/10/06 03:35:27;;;;;;;2.05;0.88;;;;;;;8.10;100.00;95810.75;5051152;28;24808;-77
2021/10/06 03:37:55;;;;;;;2.85;1.00;;;;;;;8.15;100.00;95816.47;5051478;28;24458;-77
2021/10/06 03:40:23;;;;;;;3.20;0.90;;;;;;;8.09;100.00;95819.41;5051372;28;20796;-77
2021/10/06 03:42:50;;;;;;;2.33;0.80;;;;;;;8.08;100.00;95826.28;5051516;28;21325;-78
2021/10/06 03:45:16;;;;;;;2.00;0.73;;;;;;;8.13;100.00;95826.06;5051616;28;20805;-77
2021/10/06 03:47:43;;;;;;;5.83;0.83;;;;;;;8.12;100.00;95822.66;5051452;28;20751;-77
2021/10/06 03:50:12;;;;;;;2.15;0.85;;;;;;;8.07;100.00;95832.34;5051171;28;24438;-77
2021/10/06 03:52:39;;;;;;;2.42;0.93;;;;;;;8.11;100.00;95831.28;5051165;28;20792;-77
2021/10/06 03:55:07;;;;;;;2.50;0.80;;;;;;;8.16;100.00;95836.22;5050841;28;24832;-78
2021/10/06 03:57:35;;;;;;;3.50;1.30;;;;;;;8.12;100.00;95835.56;5050963;28;25042;-77
2021/10/06 04:00:02;;;;;;;3.53;0.90;;;;;;;8.21;100.00;95835.06;5051327;28;24772;-77
2021/10/06 04:02:28;;;;;;;2.88;0.98;;;;;;;8.13;100.00;95836.38;5050506;28;24991;-77
2021/10/06 04:04:55;;;;;;;3.28;1.20;;;;;;;8.02;100.00;95833.53;5050720;28;24438;-77
2021/10/06 04:07:21;;;;;;;2.50;1.10;;;;;;;8.02;100.00;95836.94;5050631;28;24498;-77
2021/10/06 04:09:48;;;;;;;2.83;1.08;;;;;;;7.93;100.00;95832.22;5049889;28;24477;-77
2021/10/06 04:12:14;;;;;;;2.95;1.30;;;;;;;8.01;100.00;95840.44;5042482;28;24512;-77
2021/10/06 04:14:42;;;;;;;10.25;1.30;;;;;;;8.03;100.00;95836.00;5050887;28;24435;-77
2021/10/06 04:17:09;;;;;;;2.63;0.82;;;;;;;7.92;100.00;95839.13;5039857;28;24462;-77
2021/10/06 04:19:35;;;;;;;1.80;0.90;;;;;;;7.97;100.00;95842.34;5035720;28;24473;-77
2021/10/06 04:22:02;;;;;;;1.65;0.90;;;;;;;7.94;100.00;95844.25;5053034;28;24435;-77
2021/10/06 04:24:28;;;;;;;2.58;1.15;;;;;;;7.63;100.00;95850.09;5052242;28;20763;-78
2021/10/06 04:26:55;;;;;;;4.90;1.15;;;;;;;7.54;100.00;95859.13;5050594;28;24797;-77
2021/10/06 04:29:21;;;;;;;2.75;0.90;;;;;;;7.35;100.00;95866.09;5043080;28;24485;-77
2021/10/06 04:31:49;;;;;;;3.60;1.00;;;;;;;7.30;100.00;95870.63;5050716;28;24786;-77
2021/10/06 04:34:16;;;;;;;2.75;1.00;;;;;;;7.25;100.00;95871.66;5050476;28;24472;-77
2021/10/06 04:36:42;;;;;;;6.05;1.30;;;;;;;7.21;100.00;95879.63;5050389;28;24455;-77
2021/10/06 04:39:09;;;;;;;2.35;1.40;;;;;;;7.35;100.00;95873.81;5050385;28;24485;-78
2021/10/06 04:41:36;;;;;;;5.85;1.52;;;;;;;7.42;100.00;95870.03;5050697;28;24465;-78
2021/10/06 04:44:02;;;;;;;8.65;1.67;;;;;;;7.48;100.00;95878.28;5050544;28;24411;-77
2021/10/06 04:46:29;;;;;;;2.40;1.40;;;;;;;7.45;100.00;95873.31;5050104;28;24866;-78
2021/10/06 04:48:57;;;;;;;2.53;1.40;;;;;;;7.39;100.00;95888.22;5050203;28;24945;-78
2021/10/06 04:51:24;;;;;;;2.30;1.20;;;;;;;7.36;100.00;95878.06;5050357;28;24476;-77
2021/10/06 04:53:51;;;;;;;4.53;1.17;;;;;;;7.25;100.00;95879.41;5050505;28;24470;-78
2021/10/06 04:56:17;;;;;;;2.08;0.90;;;;;;;7.12;100.00;95888.63;5049909;28;24449;-78
2021/10/06 04:58:44;;;;;;;2.30;0.90;;;;;;;7.24;100.00;95884.63;5050274;28;24473;-77
2021/10/06 05:01:10;;;;;;;1.83;0.80;;;;;;;7.28;100.00;95887.00;5050254;28;24430;-78
2021/10/06 05:03:37;;;;;;;1.85;0.80;;;;;;;7.39;100.00;95894.19;5049984;28;24423;-78
2021/10/06 05:06:04;;;;;;;2.80;0.82;;;;;;;7.45;100.00;95888.75;5050119;28;24442;-77
2021/10/06 05:08:32;;;;;;;1.88;0.90;;;;;;;7.57;100.00;95894.22;5050312;28;24422;-77
2021/10/06 05:10:59;;;;;;;1.67;0.80;;;;;;;7.64;100.00;95883.53;5050212;28;24481;-78
2021/10/06 05:13:26;;;;;;;3.38;0.95;;;;;;;7.60;100.00;95888.91;5050195;28;24411;-76
2021/10/06 05:15:52;;;;;;;3.30;0.95;;;;;;;7.45;100.00;95893.91;5053179;28;24473;-78
2021/10/06 05:18:19;;;;;;;4.03;0.90;;;;;;;7.38;100.00;95894.25;5053883;28;24520;-77
2021/10/06 05:20:45;;;;;;;2.38;1.00;;;;;;;7.23;100.00;95899.25;5054021;28;24988;-77
2021/10/06 05:23:13;;;;;;;3.20;1.10;;;;;;;7.18;100.00;95901.22;5054080;28;24469;-77
2021/10/06 05:25:39;;;;;;;1.77;0.77;;;;;;;7.11;100.00;95893.84;5054656;28;24426;-77
2021/10/06 05:28:06;;;;;;;3.90;1.00;;;;;;;7.08;100.00;95896.56;5054939;28;24418;-77
2021/10/06 05:30:33;;;;;;;3.55;1.20;;;;;;;7.01;100.00;95899.44;5054592;28;24419;-77
2021/10/06 05:32:59;;;;;;;2.22;0.90;;;;;;;7.01;100.00;95902.00;5054553;28;24430;-77
2021/10/06 05:35:25;;;;;;;2.10;1.00;;;;;;;7.00;100.00;95905.47;5054366;28;24785;-77
2021/10/06 05:37:52;;;;;;;2.25;0.95;;;;;;;7.01;100.00;95907.16;5054552;28;24451;-77
2021/10/06 05:40:20;;;;;;;1.88;0.82;;;;;;;7.20;100.00;95906.31;5054517;28;25153;-77
2021/10/06 05:42:46;;;;;;;1.85;0.90;;;;;;;7.36;100.00;95898.66;5054381;28;24835;-77
2021/10/06 05:45:13;;;;;;;3.00;0.70;;;;;;;7.50;100.00;95906.56;5053888;28;24832;-77
2021/10/06 05:47:39;;;;;;;5.07;1.25;;;;;;;7.49;100.00;95905.75;5054143;28;24419;-78
2021/10/06 05:50:07;;;;;;;2.28;0.80;;;;;;;7.56;100.00;95910.56;5054279;28;24493;-77
2021/10/06 05:52:35;;;;;;;3.88;1.13;;;;;;;7.59;100.00;95918.16;5053924;28;24999;-78
2021/10/06 05:55:01;;;;;;;1.70;0.88;;;;;;;7.71;100.00;95914.97;5053997;28;24431;-77
2021/10/06 05:57:29;;;;;;;3.65;0.90;;;;;;;7.64;100.00;95922.22;5053891;28;24450;-76
2021/10/06 05:59:55;;;;;;;3.15;0.82;;;;;;;7.67;100.00;95921.19;5053889;28;24435;-77
2021/10/06 06:02:22;;;;;;;3.05;0.73;;;;;;;7.88;100.00;95927.06;5054335;28;24472;-76
2021/10/06 06:04:48;;;;;;;2.90;0.57;;;;;;;7.86;100.00;95931.44;5053780;28;24490;-77
2021/10/06 06:07:15;;;;;;;3.17;1.08;;;;;;;7.79;100.00;95932.66;5054624;28;24420;-78
2021/10/06 06:09:41;;;;;;;2.58;0.82;;;;;;;7.55;100.00;95939.84;5055871;28;24512;-77
2021/10/06 06:12:10;;;;;;;2.83;0.80;;;;;;;7.54;100.00;95946.75;5055928;28;24785;-77
2021/10/06 06:14:39;;;;;;;3.58;1.00;;;;;;;7.70;100.00;95941.69;5055565;28;24523;-78
2021/10/06 06:17:05;;;;;;;5.83;1.00;;;;;;;7.88;100.00;95951.09;5056043;28;24550;-78
2021/10/06 06:19:32;;;;;;;4.10;1.20;;;;;;;8.12;100.00;95951.63;5057305;28;24920;-78
2021/10/06 06:21:58;;;;;;;3.42;1.15;;;;;;;8.31;100.00;95948.97;5056335;28;24423;-77
2021/10/06 06:24:26;;;;;;;4.65;1.48;;;;;;;8.32;100.00;95948.03;5056396;28;24492;-78
2021/10/06 06:26:53;;;;;;;2.97;1.35;;;;;;;8.39;100.00;95951.19;5054118;28;24478;-74
2021/10/06 06:29:19;;;;;;;2.83;1.30;;;;;;;8.54;100.00;95955.56;5056868;28;24450;-78
2021/10/06 06:31:47;;;;;;;4.40;1.80;;;;;;;8.57;100.00;95967.47;5057500;28;24423;-78
2021/10/06 06:34:14;;;;;;;6.15;2.45;;;;;;;8.70;100.00;95969.31;5051284;28;24435;-77
2021/10/06 06:36:40;;;;;;;6.13;3.00;;;;;;;8.66;100.00;95966.97;5052281;28;24493;-79
2021/10/06 06:39:07;;;;;;;8.38;2.85;;;;;;;8.87;100.00;95970.19;5054642;28;24434;-79
2021/10/06 06:41:33;;;;;;;6.00;2.63;;;;;;;8.81;100.00;95973.94;5054571;28;24836;-79
2021/10/06 06:44:02;;;;;;;4.07;2.10;;;;;;;8.85;100.00;95978.00;5054746;28;24423;-80
2021/10/06 06:46:28;;;;;;;6.07;2.65;;;;;;;8.91;100.00;95980.28;5054542;28;24435;-79
2021/10/06 06:48:56;;;;;;;8.68;2.72;;;;;;;8.71;100.00;95985.63;5054854;28;24423;-79
2021/10/06 06:51:23;;;;;;;4.05;2.25;;;;;;;8.79;100.00;95986.09;5054746;28;24844;-78
2021/10/06 06:53:52;;;;;;;5.82;2.53;;;;;;;8.75;100.00;95987.19;5055877;28;20773;-77
2021/10/06 06:56:19;;;;;;;9.70;3.00;;;;;;;9.08;100.00;95994.03;5054894;28;24521;-78
2021/10/06 06:58:45;;;;;;;7.03;3.10;;;;;;;9.25;100.00;95991.41;5055053;28;20817;-78
2021/10/06 07:01:12;;;;;;;6.85;2.92;;;;;;;9.28;100.00;95993.00;5055399;28;24427;-77
2021/10/06 07:03:38;;;;;;;6.38;3.05;;;;;;;9.33;100.00;95990.97;5054902;28;24438;-78
2021/10/06 07:06:06;;;;;;;9.20;3.80;;;;;;;9.23;100.00;95995.81;5054022;28;24418;-78
2021/10/06 07:08:32;;;;;;;11.10;3.08;;;;;;;9.29;100.00;95997.25;5054798;28;21281;-78
2021/10/06 07:10:59;;;;;;;28.70;4.57;;;;;;;9.31;100.00;96000.59;5053779;28;20771;-74
2021/10/06 07:13:25;;;;;;;8.98;2.80;;;;;;;9.42;100.00;96006.00;5052442;28;24904;-74
2021/10/06 07:15:52;;;;;;;6.00;2.75;;;;;;;9.25;100.00;96004.31;5052716;28;24427;-79
2021/10/06 07:18:18;;;;;;;17.27;4.28;;;;;;;9.51;100.00;96012.41;5055889;28;24459;-78
2021/10/06 07:20:45;;;;;;;4.25;1.90;;;;;;;9.66;100.00;96006.41;5057647;28;24407;-78
2021/10/06 07:23:13;;;;;;;3.67;1.55;;;;;;;9.64;100.00;96014.25;5056681;28;24431;-78
2021/10/06 07:25:39;;;;;;;4.85;1.67;;;;;;;9.87;100.00;96015.56;5054943;28;20874;-79
2021/10/06 07:28:06;;;;;;;4.10;1.30;;;;;;;9.93;100.00;96010.00;5055919;28;20809;-76
2021/10/06 07:30:32;;;;;;;3.70;1.65;;;;;;;10.05;100.00;96007.66;5052640;28;21172;-74
2021/10/06 07:32:59;;;;;;;4.75;1.73;;;;;;;9.99;100.00;96008.84;5052608;28;20771;-78
2021/10/06 07:35:26;;;;;;;3.40;1.47;;;;;;;9.90;100.00;96007.63;5051995;28;20825;-78
2021/10/06 07:37:52;;;;;;;2.60;1.30;;;;;;;9.81;100.00;96007.31;5051529;28;20787;-78
2021/10/06 07:40:20;;;;;;;8.45;2.00;;;;;;;9.73;100.00;96019.84;5052877;28;20758;-75
2021/10/06 07:42:46;;;;;;;4.38;1.50;;;;;;;9.65;100.00;96020.25;5053141;28;20805;-75
2021/10/06 07:45:13;;;;;;;6.22;1.65;;;;;;;9.58;100.00;96024.94;5052110;28;24438;-77
2021/10/06 07:47:40;;;;;;;3.80;1.45;;;;;;;9.57;100.00;96023.25;5052378;28;24415;-77
2021/10/06 07:50:07;;;;;;;8.23;1.63;;;;;;;9.68;100.00;96031.28;5051467;28;20825;-76
2021/10/06 07:52:34;;;;;;;12.52;1.63;;;;;;;9.94;98.90;96035.00;5051352;28;20766;-77
2021/10/06 07:55:00;;;;;;;5.15;1.42;;;;;;;10.23;95.42;96037.66;5051177;28;24431;-76
2021/10/06 07:57:28;;;;;;;4.43;1.67;;;;;;;10.24;93.47;96031.59;5051163;28;24447;-75
2021/10/06 07:59:55;;;;;;;5.32;1.40;;;;;;;10.14;94.88;96049.38;5051939;28;20754;-76
2021/10/06 08:02:21;;;;;;;5.18;1.30;;;;;;;9.97;94.69;96043.50;5051278;28;24430;-76
2021/10/06 08:04:47;;;;;;;4.22;1.40;;;;;;;9.97;93.70;96053.84;5037037;28;24988;-75
2021/10/06 08:07:14;;;;;;;4.88;1.27;;;;;;;9.87;95.65;96056.13;5032546;28;24835;-78
2021/10/06 08:09:41;;;;;;;8.82;1.60;;;;;;;9.91;92.80;96065.38;5031541;28;24485;-77
2021/10/06 08:12:07;;;;;;;5.72;1.30;;;;;;;9.88;90.42;96062.94;5031071;28;24423;-75
2021/10/06 08:14:35;;;;;;;6.40;1.50;;;;;;;9.81;91.18;96070.22;5030505;28;24514;-76
2021/10/06 08:17:02;;;;;;;3.08;1.38;;;;;;;9.88;89.86;96074.13;5031086;28;21352;-76
2021/10/06 08:19:28;;;;;;;4.07;0.93;;;;;;;9.86;90.34;96081.16;5030789;28;24526;-77
2021/10/06 08:21:55;;;;;;;3.95;1.35;;;;;;;9.98;90.26;96082.22;5031098;28;24825;-76
2021/10/06 08:24:21;;;;;;;16.08;1.58;;;;;;;9.94;89.55;96078.97;5031431;28;20827;-75
2021/10/06 08:26:48;;;;;;;7.05;1.40;;;;;;;9.96;89.95;96076.28;5034086;28;24435;-75
2021/10/06 08:29:15;;;;;;;3.47;1.27;;;;;;;10.30;90.42;96080.44;5050415;28;20763;-76
2021/10/06 08:31:43;;;;;;;6.50;1.27;;;;;;;10.43;88.13;96083.19;5050793;28;24849;-75
2021/10/06 08:34:09;;;;;;;5.03;1.27;;;;;;;10.54;87.92;96080.81;5050174;28;21176;-76
2021/10/06 08:36:37;;;;;;;4.72;1.50;;;;;;;10.49;87.86;96097.50;5050372;28;24983;-76
2021/10/06 08:39:08;;;;;;;5.68;1.58;;;;;;;10.73;88.34;96093.53;5050217;28;24439;-75
2021/10/06 08:41:34;;;;;;;3.25;1.33;;;;;;;10.89;87.17;96088.28;5051179;28;21226;-76
2021/10/06 08:44:01;;;;;;;5.22;1.30;;;;;;;10.92;84.51;96092.44;5051249;28;24422;-76
2021/10/06 08:46:28;;;;;;;4.18;1.00;;;;;;;10.80;84.55;96102.59;5050336;28;24437;-76
2021/10/06 08:48:56;;;;;;;3.63;1.42;;;;;;;10.81;84.64;96100.84;5050786;28;20759;-75
2021/10/06 08:51:23;;;;;;;5.82;1.20;;;;;;;10.98;84.06;96092.94;5050536;28;20767;-74
2021/10/06 08:53:51;;;;;;;2.65;1.30;;;;;;;11.06;83.93;96095.06;5050417;28;20771;-76
2021/10/06 08:56:21;;;;;;;13.10;1.58;;;;;;;10.92;84.75;96103.66;5050143;28;20771;-75
2021/10/06 08:58:47;;;;;;;3.47;0.93;;;;;;;10.87;82.74;96095.31;5050360;28;24801;-76
2021/10/06 09:01:22;;;;;;;3.90;1.15;;;;;;;11.02;83.93;96099.59;5050559;28;24469;-76
2021/10/06 09:03:54;;;;;;;4.47;1.33;;;;;;;11.38;83.42;96098.28;5044400;28;20773;-76
2021/10/06 09:06:30;;;;;;;3.90;0.95;;;;;;;11.64;78.96;96099.28;5030083;28;21260;-76
2021/10/06 09:08:57;;;;;;;3.60;1.15;;;;;;;11.41;79.60;96100.72;5030423;28;21171;-75
2021/10/06 09:11:32;;;;;;;3.72;1.10;;;;;;;11.31;79.61;96105.63;5030162;28;24992;-76
2021/10/06 09:14:02;;;;;;;3.28;1.10;;;;;;;11.32;78.72;96103.88;5030525;28;24435;-76
2021/10/06 09:16:28;;;;;;;1.92;1.00;;;;;;;11.29;78.02;96107.47;5029985;28;24438;-76
2021/10/06 09:18:54;;;;;;;3.88;1.17;;;;;;;11.17;78.96;96120.34;5030693;28;24451;-77
2021/10/06 09:21:22;;;;;;;2.60;1.00;;;;;;;11.07;79.44;96120.88;5031321;28;24430;-76
2021/10/06 09:23:49;;;;;;;5.82;1.40;;;;;;;11.02;80.20;96124.69;5030455;28;25160;-76
2021/10/06 09:26:15;;;;;;;2.75;0.85;;;;;;;11.01;79.78;96123.84;5030313;28;20807;-76
2021/10/06 09:28:46;;;;;;;4.93;1.17;;;;;;;10.86;79.64;96122.13;5030956;28;24821;-76
2021/10/06 09:31:14;;;;;;;6.05;1.17;;;;;;;10.97;76.64;96126.69;5030826;28;20794;-76
2021/10/06 09:33:43;;;;;;;3.05;0.93;;;;;;;11.05;76.57;96122.75;5030246;28;24431;-76
2021/10/06 09:36:13;;;;;;;2.33;1.00;;;;;;;11.04;77.12;96128.00;5030660;28;20756;-75
2021/10/06 09:38:49;;;;;;;6.47;1.08;;;;;;;11.05;76.54;96127.06;5030831;28;20746;-75
2021/10/06 09:41:33;;;;;;;3.58;1.00;;;;;;;11.24;76.40;96125.06;5030542;28;20757;-75
2021/10/06 09:44:02;;;;;;;2.85;0.93;;;;;;;11.22;76.59;96126.09;5030856;28;20677;-76
2021/10/06 09:46:44;;;;;;;6.80;1.20;;;;;;;11.11;77.48;96131.91;5030237;28;20869;-76
2021/10/06 09:49:17;;;;;;;4.05;1.20;;;;;;;11.18;77.86;96134.97;5030653;28;20698;-76
2021/10/06 09:51:43;;;;;;;2.60;0.93;;;;;;;11.18;77.91;96140.16;5031628;28;24428;-76
2021/10/06 09:54:11;;;;;;;7.57;1.23;;;;;;;11.14;79.48;96150.69;5050260;28;24443;-76
2021/10/06 09:56:39;;;;;;;2.55;1.00;;;;;;;11.13;79.19;96150.81;5049906;28;20854;-76
2021/10/06 09:59:07;;;;;;;4.18;1.10;;;;;;;11.14;78.86;96150.69;5050113;28;24542;-75
2021/10/06 10:01:37;;;;;;;3.17;1.00;;;;;;;11.18;77.51;96155.72;5052981;28;20807;-75
2021/10/06 10:04:05;;;;;;;4.28;1.08;;;;;;;10.76;78.53;96159.88;5053815;28;24439;-76
2021/10/06 10:06:31;;;;;;;3.65;1.15;;;;;;;10.77;80.02;96156.34;5054047;28;20797;-76
2021/10/06 10:08:58;;;;;;;3.30;1.20;;;;;;;11.31;79.58;96148.84;5054062;28;24990;-77
2021/10/06 10:11:26;;;;;;;4.90;1.30;;;;;;;11.53;77.99;96146.66;5053929;28;20758;-75
2021/10/06 10:13:53;;;;;;;3.10;0.90;;;;;;;11.70;77.15;96158.59;5054112;28;24469;-76
2021/10/06 10:16:19;;;;;;;2.58;0.85;;;;;;;11.91;75.20;96158.25;5053253;28;20771;-76
2021/10/06 10:18:46;;;;;;;5.95;1.38;;;;;;;12.22;74.63;96163.19;5053041;28;24802;-76
2021/10/06 10:21:15;;;;;;;11.07;1.40;;;;;;;12.31;74.15;96170.41;5053256;28;24427;-77
2021/10/06 10:23:41;;;;;;;2.30;0.95;;;;;;;12.31;73.76;96157.44;5058933;28;24423;-76
2021/10/06 10:26:22;;;;;;;4.10;1.40;;;;;;;12.33;72.86;96159.91;5058679;28;24446;-76
2021/10/06 10:28:50;;;;;;;3.65;1.30;;;;;;;12.32;75.20;96171.25;5059735;28;24407;-77
2021/10/06 10:31:18;;;;;;;4.15;1.50;;;;;;;12.35;73.19;96165.84;5054928;28;24419;-76
2021/10/06 10:33:47;;;;;;;3.33;1.63;;;;;;;12.41;72.60;96167.22;5052956;28;24454;-76
2021/10/06 10:36:47;;;;;;;3.67;1.50;;;;;;;12.40;71.63;96176.78;5053099;28;24504;-76
2021/10/06 10:39:59;;;;;;;3.13;1.00;;;;;;;12.14;73.39;96175.00;5052468;28;25007;-75
2021/10/06 10:42:55;;;;;;;4.43;1.27;;;;;;;11.90;73.49;96174.72;5052968;28;24505;-75
2021/10/06 10:45:36;;;;;;;2.92;0.93;;;;;;;11.93;74.43;96167.59;5052348;28;24837;-76
2021/10/06 10:48:03;;;;;;;3.08;1.15;;;;;;;11.90;74.15;96172.13;5053170;28;24507;-77
2021/10/06 10:50:38;;;;;;;3.50;1.20;;;;;;;11.80;73.76;96167.50;5053073;28;24427;-76
2021/10/06 10:53:06;;;;;;;4.30;1.30;;;;;;;11.80;74.55;96175.28;5052524;28;25043;-76
2021/10/06 10:55:45;;;;;;;3.30;0.90;;;;;;;11.70;72.69;96179.34;5052343;28;24474;-77
2021/10/06 10:58:27;;;;;;;1.95;0.85;;;;;;;11.83;73.32;96177.72;5052747;28;24514;-76
2021/10/06 11:00:56;;;;;;;3.35;1.17;;;;;;;11.93;73.81;96177.97;5052527;28;24426;-75
2021/10/06 11:03:22;;;;;;;2.38;1.00;;;;;;;12.33;73.04;96176.31;5052004;28;24439;-76
2021/10/06 11:05:50;;;;;;;1.63;0.80;;;;;;;12.50;71.55;96177.88;5052281;28;24420;-76
2021/10/06 11:08:24;;;;;;;2.83;1.00;;;;;;;12.50;68.99;96172.66;5052134;28;24423;-75
2021/10/06 11:11:31;;;;;;;3.60;1.10;;;;;;;12.28;70.98;96181.00;5052572;28;24517;-76
2021/10/06 11:14:21;;;;;;;3.20;0.77;;;;;;;12.31;70.24;96182.53;5051967;28;24455;-76
2021/10/06 11:17:10;;;;;;;5.22;1.05;;;;;;;12.32;70.14;96174.66;5052291;28;24450;-76
2021/10/06 11:19:42;;;;;;;4.25;0.90;;;;;;;12.37;70.62;96176.97;5052405;28;24438;-77
2021/10/06 11:22:41;;;;;;;2.35;0.90;;;;;;;12.18;68.54;96169.50;5052146;28;24828;-76
2021/10/06 11:25:09;;;;;;;3.10;1.08;;;;;;;11.98;69.71;96170.75;5040270;28;24481;-77
2021/10/06 11:27:45;;;;;;;2.03;0.70;;;;;;;11.96;70.72;96179.56;5051931;28;24844;-77
2021/10/06 11:30:13;;;;;;;2.17;0.80;;;;;;;11.94;70.77;96174.47;5051968;28;24419;-76
2021/10/06 11:32:46;;;;;;;8.52;1.00;;;;;;;11.31;72.17;96182.56;5051924;28;24431;-77
2021/10/06 11:35:13;;;;;;;2.27;0.80;;;;;;;11.17;70.91;96182.56;5033878;28;24491;-77
2021/10/06 11:37:39;;;;;;;2.35;0.77;;;;;;;11.35;69.63;96181.47;5032050;28;24443;-77
2021/10/06 11:40:09;;;;;;;1.83;0.70;;;;;;;11.43;70.15;96181.84;5031936;28;24451;-77